sensor_id;sensor_type;location;lat;lon;timestamp;P1;durP1;ratioP1;P2;durP2;ratioP2
58152;SDS011;43967;51.634;5.566;2024-03-07T00:04:13;13.45;;;6.35;;
58152;SDS011;43967;51.634;5.566;2024-03-07T00:09:34;12.33;;;6.23;;
58152;SDS011;43967;51.634;5.566;2024-03-07T00:14:56;11.83;;;6.27;;
58152;SDS011;43967;51.634;5.566;2024-03-07T00:20:17;14.50;;;6.40;;
58152;SDS011;43967;51.634;5.566;2024-03-07T00:25:39;12.30;;;6.20;;
58152;SDS011;43967;51.634;5.566;2024-03-07T00:31:00;12.13;;;5.80;;
58152;SDS011;43967;51.634;5.566;2024-03-07T00:36:21;10.90;;;5.97;;
58152;SDS011;43967;51.634;5.566;2024-03-07T00:41:43;13.63;;;6.13;;
58152;SDS011;43967;51.634;5.566;2024-03-07T00:47:04;12.43;;;6.10;;
58152;SDS011;43967;51.634;5.566;2024-03-07T00:52:25;11.15;;;5.72;;
58152;SDS011;43967;51.634;5.566;2024-03-07T00:57:47;12.45;;;6.95;;
58152;SDS011;43967;51.634;5.566;2024-03-07T01:03:09;11.90;;;6.43;;
58152;SDS011;43967;51.634;5.566;2024-03-07T01:08:30;13.30;;;6.40;;
58152;SDS011;43967;51.634;5.566;2024-03-07T01:13:52;13.40;;;6.32;;
58152;SDS011;43967;51.634;5.566;2024-03-07T01:19:13;11.80;;;6.00;;
58152;SDS011;43967;51.634;5.566;2024-03-07T01:24:34;11.83;;;5.23;;
58152;SDS011;43967;51.634;5.566;2024-03-07T01:29:55;10.48;;;5.88;;
58152;SDS011;43967;51.634;5.566;2024-03-07T01:35:17;10.98;;;5.97;;
58152;SDS011;43967;51.634;5.566;2024-03-07T01:40:38;11.73;;;6.40;;
58152;SDS011;43967;51.634;5.566;2024-03-07T01:46:00;10.85;;;5.60;;
58152;SDS011;43967;51.634;5.566;2024-03-07T01:51:22;12.13;;;6.35;;
58152;SDS011;43967;51.634;5.566;2024-03-07T01:56:45;11.13;;;6.10;;
58152;SDS011;43967;51.634;5.566;2024-03-07T02:02:06;10.33;;;5.83;;
58152;SDS011;43967;51.634;5.566;2024-03-07T02:07:28;13.13;;;6.50;;
58152;SDS011;43967;51.634;5.566;2024-03-07T02:12:49;13.05;;;6.10;;
58152;SDS011;43967;51.634;5.566;2024-03-07T02:18:10;11.50;;;6.00;;
58152;SDS011;43967;51.634;5.566;2024-03-07T02:23:32;12.52;;;6.30;;
58152;SDS011;43967;51.634;5.566;2024-03-07T02:28:53;12.50;;;6.30;;
58152;SDS011;43967;51.634;5.566;2024-03-07T02:34:14;11.20;;;5.93;;
58152;SDS011;43967;51.634;5.566;2024-03-07T02:39:36;11.50;;;5.63;;
58152;SDS011;43967;51.634;5.566;2024-03-07T02:44:57;11.60;;;5.82;;
58152;SDS011;43967;51.634;5.566;2024-03-07T02:50:18;11.43;;;5.97;;
58152;SDS011;43967;51.634;5.566;2024-03-07T02:55:40;11.77;;;5.80;;
58152;SDS011;43967;51.634;5.566;2024-03-07T03:01:01;11.95;;;6.63;;
58152;SDS011;43967;51.634;5.566;2024-03-07T03:06:22;11.00;;;5.90;;
58152;SDS011;43967;51.634;5.566;2024-03-07T03:11:44;12.70;;;6.40;;
58152;SDS011;43967;51.634;5.566;2024-03-07T03:17:05;11.80;;;6.47;;
58152;SDS011;43967;51.634;5.566;2024-03-07T03:22:26;12.05;;;6.25;;
58152;SDS011;43967;51.634;5.566;2024-03-07T03:27:48;13.40;;;6.23;;
58152;SDS011;43967;51.634;5.566;2024-03-07T03:33:09;11.95;;;6.05;;
58152;SDS011;43967;51.634;5.566;2024-03-07T03:38:31;11.27;;;5.90;;
58152;SDS011;43967;51.634;5.566;2024-03-07T03:43:52;11.90;;;6.37;;
58152;SDS011;43967;51.634;5.566;2024-03-07T03:49:13;11.33;;;6.20;;
58152;SDS011;43967;51.634;5.566;2024-03-07T03:54:34;12.05;;;6.35;;
58152;SDS011;43967;51.634;5.566;2024-03-07T03:59:56;11.98;;;5.97;;
58152;SDS011;43967;51.634;5.566;2024-03-07T04:05:18;13.03;;;6.27;;
58152;SDS011;43967;51.634;5.566;2024-03-07T04:10:40;12.48;;;6.38;;
58152;SDS011;43967;51.634;5.566;2024-03-07T04:16:01;12.32;;;6.38;;
58152;SDS011;43967;51.634;5.566;2024-03-07T04:21:23;12.93;;;6.40;;
58152;SDS011;43967;51.634;5.566;2024-03-07T04:26:44;12.05;;;6.30;;
58152;SDS011;43967;51.634;5.566;2024-03-07T04:32:05;12.02;;;6.57;;
58152;SDS011;43967;51.634;5.566;2024-03-07T04:37:27;12.47;;;6.83;;
58152;SDS011;43967;51.634;5.566;2024-03-07T04:42:48;11.77;;;6.33;;
58152;SDS011;43967;51.634;5.566;2024-03-07T04:48:10;14.50;;;7.03;;
58152;SDS011;43967;51.634;5.566;2024-03-07T04:53:31;13.60;;;6.72;;
58152;SDS011;43967;51.634;5.566;2024-03-07T04:58:52;11.43;;;6.33;;
58152;SDS011;43967;51.634;5.566;2024-03-07T05:04:14;13.70;;;7.10;;
58152;SDS011;43967;51.634;5.566;2024-03-07T05:09:36;11.98;;;6.72;;
58152;SDS011;43967;51.634;5.566;2024-03-07T05:14:57;13.57;;;6.43;;
58152;SDS011;43967;51.634;5.566;2024-03-07T05:20:19;12.57;;;6.50;;
58152;SDS011;43967;51.634;5.566;2024-03-07T05:25:40;11.98;;;6.43;;
58152;SDS011;43967;51.634;5.566;2024-03-07T05:31:01;12.03;;;6.50;;
58152;SDS011;43967;51.634;5.566;2024-03-07T05:36:23;12.07;;;6.67;;
58152;SDS011;43967;51.634;5.566;2024-03-07T05:41:44;12.27;;;6.63;;
58152;SDS011;43967;51.634;5.566;2024-03-07T05:47:06;11.85;;;6.30;;
58152;SDS011;43967;51.634;5.566;2024-03-07T05:52:27;13.53;;;6.50;;
58152;SDS011;43967;51.634;5.566;2024-03-07T05:57:48;13.15;;;6.70;;
58152;SDS011;43967;51.634;5.566;2024-03-07T06:03:09;11.75;;;6.45;;
58152;SDS011;43967;51.634;5.566;2024-03-07T06:08:31;11.17;;;6.40;;
58152;SDS011;43967;51.634;5.566;2024-03-07T06:13:53;12.63;;;6.68;;
58152;SDS011;43967;51.634;5.566;2024-03-07T06:19:14;12.90;;;6.90;;
58152;SDS011;43967;51.634;5.566;2024-03-07T06:24:35;11.70;;;6.40;;
58152;SDS011;43967;51.634;5.566;2024-03-07T06:29:57;13.07;;;6.90;;
58152;SDS011;43967;51.634;5.566;2024-03-07T06:35:18;14.15;;;7.72;;
58152;SDS011;43967;51.634;5.566;2024-03-07T06:40:40;14.07;;;7.10;;
58152;SDS011;43967;51.634;5.566;2024-03-07T06:46:02;16.00;;;8.00;;
58152;SDS011;43967;51.634;5.566;2024-03-07T06:51:23;14.07;;;7.72;;
58152;SDS011;43967;51.634;5.566;2024-03-07T06:56:45;14.30;;;7.78;;
58152;SDS011;43967;51.634;5.566;2024-03-07T07:02:06;15.20;;;8.40;;
58152;SDS011;43967;51.634;5.566;2024-03-07T07:07:27;14.50;;;8.10;;
58152;SDS011;43967;51.634;5.566;2024-03-07T07:12:49;14.85;;;8.10;;
58152;SDS011;43967;51.634;5.566;2024-03-07T07:18:11;14.87;;;8.13;;
58152;SDS011;43967;51.634;5.566;2024-03-07T07:23:33;13.57;;;7.40;;
58152;SDS011;43967;51.634;5.566;2024-03-07T07:28:54;13.32;;;7.70;;
58152;SDS011;43967;51.634;5.566;2024-03-07T07:34:15;15.10;;;7.05;;
58152;SDS011;43967;51.634;5.566;2024-03-07T07:39:36;11.93;;;6.80;;
58152;SDS011;43967;51.634;5.566;2024-03-07T07:44:58;13.25;;;7.45;;
58152;SDS011;43967;51.634;5.566;2024-03-07T07:50:19;13.73;;;7.35;;
58152;SDS011;43967;51.634;5.566;2024-03-07T07:55:42;14.77;;;7.50;;
58152;SDS011;43967;51.634;5.566;2024-03-07T08:01:03;12.70;;;6.85;;
58152;SDS011;43967;51.634;5.566;2024-03-07T08:06:24;12.73;;;7.03;;
58152;SDS011;43967;51.634;5.566;2024-03-07T08:11:49;11.93;;;6.50;;
58152;SDS011;43967;51.634;5.566;2024-03-07T08:17:10;12.53;;;6.50;;
58152;SDS011;43967;51.634;5.566;2024-03-07T08:22:31;11.80;;;6.68;;
58152;SDS011;43967;51.634;5.566;2024-03-07T08:27:53;11.43;;;6.13;;
58152;SDS011;43967;51.634;5.566;2024-03-07T08:33:15;11.93;;;6.50;;
58152;SDS011;43967;51.634;5.566;2024-03-07T08:38:36;13.32;;;6.78;;
58152;SDS011;43967;51.634;5.566;2024-03-07T08:43:57;12.15;;;6.63;;
58152;SDS011;43967;51.634;5.566;2024-03-07T08:49:19;11.53;;;6.17;;
58152;SDS011;43967;51.634;5.566;2024-03-07T08:54:40;11.07;;;6.45;;
58152;SDS011;43967;51.634;5.566;2024-03-07T09:00:02;12.90;;;6.18;;
58152;SDS011;43967;51.634;5.566;2024-03-07T09:05:24;13.10;;;6.60;;
58152;SDS011;43967;51.634;5.566;2024-03-07T09:10:46;10.43;;;5.97;;
58152;SDS011;43967;51.634;5.566;2024-03-07T09:16:07;11.38;;;6.60;;
58152;SDS011;43967;51.634;5.566;2024-03-07T09:21:28;10.20;;;5.60;;
58152;SDS011;43967;51.634;5.566;2024-03-07T09:26:50;10.73;;;5.57;;
58152;SDS011;43967;51.634;5.566;2024-03-07T09:32:11;11.30;;;5.78;;
58152;SDS011;43967;51.634;5.566;2024-03-07T09:37:33;10.77;;;6.07;;
58152;SDS011;43967;51.634;5.566;2024-03-07T09:42:54;14.70;;;6.43;;
58152;SDS011;43967;51.634;5.566;2024-03-07T09:48:17;14.50;;;6.60;;
58152;SDS011;43967;51.634;5.566;2024-03-07T09:53:39;11.93;;;6.85;;
58152;SDS011;43967;51.634;5.566;2024-03-07T09:59:03;12.67;;;7.53;;
58152;SDS011;43967;51.634;5.566;2024-03-07T10:04:37;11.77;;;7.10;;
58152;SDS011;43967;51.634;5.566;2024-03-07T10:10:01;12.90;;;6.75;;
58152;SDS011;43967;51.634;5.566;2024-03-07T10:15:27;12.00;;;7.07;;
58152;SDS011;43967;51.634;5.566;2024-03-07T10:20:53;12.63;;;6.50;;
58152;SDS011;43967;51.634;5.566;2024-03-07T10:26:15;11.73;;;6.45;;
58152;SDS011;43967;51.634;5.566;2024-03-07T10:31:36;12.75;;;6.25;;
58152;SDS011;43967;51.634;5.566;2024-03-07T10:36:57;11.83;;;6.00;;
58152;SDS011;43967;51.634;5.566;2024-03-07T10:42:21;11.45;;;6.25;;
58152;SDS011;43967;51.634;5.566;2024-03-07T10:47:42;11.52;;;6.10;;
58152;SDS011;43967;51.634;5.566;2024-03-07T10:53:15;11.10;;;5.90;;
58152;SDS011;43967;51.634;5.566;2024-03-07T10:58:59;13.13;;;6.83;;
58152;SDS011;43967;51.634;5.566;2024-03-07T11:04:36;10.75;;;6.10;;
58152;SDS011;43967;51.634;5.566;2024-03-07T11:09:58;11.25;;;6.10;;
58152;SDS011;43967;51.634;5.566;2024-03-07T11:15:21;10.70;;;6.07;;
58152;SDS011;43967;51.634;5.566;2024-03-07T11:20:43;12.05;;;6.07;;
58152;SDS011;43967;51.634;5.566;2024-03-07T11:26:05;11.32;;;6.15;;
58152;SDS011;43967;51.634;5.566;2024-03-07T11:31:28;10.73;;;6.33;;
58152;SDS011;43967;51.634;5.566;2024-03-07T11:36:49;11.60;;;5.78;;
58152;SDS011;43967;51.634;5.566;2024-03-07T11:47:43;12.80;;;6.50;;
58152;SDS011;43967;51.634;5.566;2024-03-07T11:53:05;11.03;;;6.20;;
58152;SDS011;43967;51.634;5.566;2024-03-07T11:58:27;11.25;;;6.45;;
58152;SDS011;43967;51.634;5.566;2024-03-07T12:03:49;11.52;;;5.97;;
58152;SDS011;43967;51.634;5.566;2024-03-07T12:09:10;11.80;;;6.03;;
58152;SDS011;43967;51.634;5.566;2024-03-07T12:14:32;11.93;;;6.32;;
58152;SDS011;43967;51.634;5.566;2024-03-07T12:19:53;10.77;;;6.15;;
58152;SDS011;43967;51.634;5.566;2024-03-07T12:25:17;11.30;;;6.07;;
58152;SDS011;43967;51.634;5.566;2024-03-07T12:36:06;11.10;;;6.00;;
58152;SDS011;43967;51.634;5.566;2024-03-07T12:41:28;11.93;;;6.57;;
58152;SDS011;43967;51.634;5.566;2024-03-07T12:46:53;12.00;;;6.50;;
58152;SDS011;43967;51.634;5.566;2024-03-07T12:52:15;10.93;;;6.70;;
58152;SDS011;43967;51.634;5.566;2024-03-07T12:57:36;10.48;;;5.82;;
58152;SDS011;43967;51.634;5.566;2024-03-07T13:02:57;11.90;;;6.50;;
58152;SDS011;43967;51.634;5.566;2024-03-07T13:08:19;11.20;;;5.50;;
58152;SDS011;43967;51.634;5.566;2024-03-07T13:13:40;10.98;;;5.40;;
58152;SDS011;43967;51.634;5.566;2024-03-07T13:19:01;12.33;;;5.60;;
58152;SDS011;43967;51.634;5.566;2024-03-07T13:24:23;13.30;;;6.05;;
58152;SDS011;43967;51.634;5.566;2024-03-07T13:29:46;11.57;;;6.10;;
58152;SDS011;43967;51.634;5.566;2024-03-07T13:35:07;10.70;;;5.90;;
58152;SDS011;43967;51.634;5.566;2024-03-07T13:40:28;10.47;;;5.30;;
58152;SDS011;43967;51.634;5.566;2024-03-07T13:45:50;11.95;;;6.03;;
58152;SDS011;43967;51.634;5.566;2024-03-07T13:51:11;10.95;;;5.50;;
58152;SDS011;43967;51.634;5.566;2024-03-07T13:56:39;10.97;;;5.63;;
58152;SDS011;43967;51.634;5.566;2024-03-07T14:02:23;10.65;;;5.80;;
58152;SDS011;43967;51.634;5.566;2024-03-07T14:31:12;10.43;;;5.67;;
58152;SDS011;43967;51.634;5.566;2024-03-07T14:36:10;10.93;;;5.70;;
58152;SDS011;43967;51.634;5.566;2024-03-07T14:41:55;11.15;;;5.78;;
58152;SDS011;43967;51.634;5.566;2024-03-07T14:47:22;10.45;;;5.28;;
58152;SDS011;43967;51.634;5.566;2024-03-07T14:52:43;10.13;;;5.50;;
58152;SDS011;43967;51.634;5.566;2024-03-07T14:58:05;11.13;;;5.55;;
58152;SDS011;43967;51.634;5.566;2024-03-07T15:03:26;10.43;;;5.80;;
58152;SDS011;43967;51.634;5.566;2024-03-07T15:08:48;11.13;;;5.43;;
58152;SDS011;43967;51.634;5.566;2024-03-07T15:14:09;11.18;;;5.88;;
58152;SDS011;43967;51.634;5.566;2024-03-07T15:19:33;10.25;;;5.60;;
58152;SDS011;43967;51.634;5.566;2024-03-07T15:24:54;11.10;;;5.90;;
58152;SDS011;43967;51.634;5.566;2024-03-07T15:30:16;9.53;;;5.40;;
58152;SDS011;43967;51.634;5.566;2024-03-07T15:35:38;10.27;;;5.45;;
58152;SDS011;43967;51.634;5.566;2024-03-07T15:41:00;10.00;;;5.60;;
58152;SDS011;43967;51.634;5.566;2024-03-07T15:46:21;10.40;;;5.60;;
58152;SDS011;43967;51.634;5.566;2024-03-07T15:51:43;10.65;;;6.40;;
58152;SDS011;43967;51.634;5.566;2024-03-07T15:57:04;10.30;;;5.13;;
58152;SDS011;43967;51.634;5.566;2024-03-07T16:02:25;9.33;;;5.40;;
58152;SDS011;43967;51.634;5.566;2024-03-07T16:07:46;10.23;;;5.93;;
58152;SDS011;43967;51.634;5.566;2024-03-07T16:13:08;10.00;;;5.55;;
58152;SDS011;43967;51.634;5.566;2024-03-07T16:18:31;9.90;;;5.23;;
58152;SDS011;43967;51.634;5.566;2024-03-07T16:23:52;10.97;;;5.93;;
58152;SDS011;43967;51.634;5.566;2024-03-07T16:29:13;10.80;;;6.05;;
58152;SDS011;43967;51.634;5.566;2024-03-07T16:34:36;10.75;;;5.88;;
58152;SDS011;43967;51.634;5.566;2024-03-07T16:39:57;10.10;;;5.90;;
58152;SDS011;43967;51.634;5.566;2024-03-07T16:45:19;10.85;;;6.10;;
58152;SDS011;43967;51.634;5.566;2024-03-07T16:50:42;10.30;;;5.75;;
58152;SDS011;43967;51.634;5.566;2024-03-07T16:56:03;10.60;;;5.73;;
58152;SDS011;43967;51.634;5.566;2024-03-07T17:01:24;10.05;;;5.30;;
58152;SDS011;43967;51.634;5.566;2024-03-07T17:06:45;11.57;;;6.15;;
58152;SDS011;43967;51.634;5.566;2024-03-07T17:12:07;9.90;;;5.63;;
58152;SDS011;43967;51.634;5.566;2024-03-07T17:17:29;9.60;;;5.13;;
58152;SDS011;43967;51.634;5.566;2024-03-07T17:22:53;9.75;;;5.50;;
58152;SDS011;43967;51.634;5.566;2024-03-07T17:28:15;10.55;;;5.63;;
58152;SDS011;43967;51.634;5.566;2024-03-07T17:33:36;10.07;;;5.43;;
58152;SDS011;43967;51.634;5.566;2024-03-07T17:38:59;9.35;;;5.53;;
58152;SDS011;43967;51.634;5.566;2024-03-07T17:44:20;10.20;;;5.45;;
58152;SDS011;43967;51.634;5.566;2024-03-07T17:49:41;9.60;;;5.20;;
58152;SDS011;43967;51.634;5.566;2024-03-07T17:55:03;9.00;;;5.03;;
58152;SDS011;43967;51.634;5.566;2024-03-07T18:00:26;9.77;;;5.00;;
58152;SDS011;43967;51.634;5.566;2024-03-07T18:05:47;9.70;;;5.20;;
58152;SDS011;43967;51.634;5.566;2024-03-07T18:11:09;9.93;;;4.77;;
58152;SDS011;43967;51.634;5.566;2024-03-07T18:16:30;9.35;;;5.05;;
58152;SDS011;43967;51.634;5.566;2024-03-07T18:21:51;9.90;;;5.20;;
58152;SDS011;43967;51.634;5.566;2024-03-07T18:27:12;9.40;;;4.87;;
58152;SDS011;43967;51.634;5.566;2024-03-07T18:32:34;9.40;;;4.95;;
58152;SDS011;43967;51.634;5.566;2024-03-07T18:37:55;10.70;;;4.97;;
58152;SDS011;43967;51.634;5.566;2024-03-07T18:43:16;10.63;;;5.80;;
58152;SDS011;43967;51.634;5.566;2024-03-07T18:48:38;9.90;;;4.85;;
58152;SDS011;43967;51.634;5.566;2024-03-07T18:53:59;9.80;;;4.63;;
58152;SDS011;43967;51.634;5.566;2024-03-07T18:59:20;11.43;;;6.10;;
58152;SDS011;43967;51.634;5.566;2024-03-07T19:04:41;10.50;;;5.70;;
58152;SDS011;43967;51.634;5.566;2024-03-07T19:10:03;12.15;;;6.10;;
58152;SDS011;43967;51.634;5.566;2024-03-07T19:15:25;11.57;;;5.72;;
58152;SDS011;43967;51.634;5.566;2024-03-07T19:20:47;11.17;;;5.63;;
58152;SDS011;43967;51.634;5.566;2024-03-07T19:26:09;12.60;;;6.47;;
58152;SDS011;43967;51.634;5.566;2024-03-07T19:31:30;10.90;;;5.55;;
58152;SDS011;43967;51.634;5.566;2024-03-07T19:36:51;11.10;;;5.60;;
58152;SDS011;43967;51.634;5.566;2024-03-07T19:42:12;12.20;;;6.28;;
58152;SDS011;43967;51.634;5.566;2024-03-07T19:47:34;11.73;;;5.80;;
58152;SDS011;43967;51.634;5.566;2024-03-07T19:52:55;12.73;;;6.27;;
58152;SDS011;43967;51.634;5.566;2024-03-07T19:58:16;12.00;;;5.67;;
58152;SDS011;43967;51.634;5.566;2024-03-07T20:03:37;11.65;;;6.10;;
58152;SDS011;43967;51.634;5.566;2024-03-07T20:08:59;11.60;;;6.10;;
58152;SDS011;43967;51.634;5.566;2024-03-07T20:14:20;13.80;;;6.30;;
58152;SDS011;43967;51.634;5.566;2024-03-07T20:19:41;13.80;;;6.97;;
58152;SDS011;43967;51.634;5.566;2024-03-07T20:25:03;14.40;;;6.85;;
58152;SDS011;43967;51.634;5.566;2024-03-07T20:30:24;15.47;;;6.93;;
58152;SDS011;43967;51.634;5.566;2024-03-07T20:35:45;14.68;;;7.22;;
58152;SDS011;43967;51.634;5.566;2024-03-07T20:41:08;14.52;;;7.30;;
58152;SDS011;43967;51.634;5.566;2024-03-07T20:46:29;15.63;;;7.30;;
58152;SDS011;43967;51.634;5.566;2024-03-07T20:51:52;15.93;;;7.30;;
58152;SDS011;43967;51.634;5.566;2024-03-07T20:57:14;14.80;;;7.90;;
58152;SDS011;43967;51.634;5.566;2024-03-07T21:02:35;13.70;;;7.22;;
58152;SDS011;43967;51.634;5.566;2024-03-07T21:07:56;13.97;;;6.50;;
58152;SDS011;43967;51.634;5.566;2024-03-07T21:13:17;15.43;;;6.75;;
58152;SDS011;43967;51.634;5.566;2024-03-07T21:18:39;13.95;;;7.03;;
58152;SDS011;43967;51.634;5.566;2024-03-07T21:24:00;15.07;;;6.53;;
58152;SDS011;43967;51.634;5.566;2024-03-07T21:29:21;15.25;;;6.90;;
58152;SDS011;43967;51.634;5.566;2024-03-07T21:34:44;14.50;;;7.10;;
58152;SDS011;43967;51.634;5.566;2024-03-07T21:40:07;16.00;;;6.67;;
58152;SDS011;43967;51.634;5.566;2024-03-07T21:45:30;13.77;;;6.60;;
58152;SDS011;43967;51.634;5.566;2024-03-07T21:50:51;14.70;;;7.00;;
58152;SDS011;43967;51.634;5.566;2024-03-07T21:56:25;15.40;;;7.05;;
58152;SDS011;43967;51.634;5.566;2024-03-07T22:01:47;13.13;;;6.40;;
58152;SDS011;43967;51.634;5.566;2024-03-07T22:07:10;16.20;;;7.28;;
58152;SDS011;43967;51.634;5.566;2024-03-07T22:12:31;14.18;;;6.85;;
58152;SDS011;43967;51.634;5.566;2024-03-07T22:17:53;14.73;;;6.60;;
58152;SDS011;43967;51.634;5.566;2024-03-07T22:23:14;13.02;;;6.70;;
58152;SDS011;43967;51.634;5.566;2024-03-07T22:28:36;13.38;;;6.70;;
58152;SDS011;43967;51.634;5.566;2024-03-07T22:33:57;14.03;;;6.53;;
58152;SDS011;43967;51.634;5.566;2024-03-07T22:39:19;13.43;;;7.20;;
58152;SDS011;43967;51.634;5.566;2024-03-07T22:44:40;13.52;;;6.57;;
58152;SDS011;43967;51.634;5.566;2024-03-07T22:50:01;12.45;;;6.65;;
58152;SDS011;43967;51.634;5.566;2024-03-07T22:55:22;13.03;;;6.40;;
58152;SDS011;43967;51.634;5.566;2024-03-07T23:00:44;11.93;;;6.15;;
58152;SDS011;43967;51.634;5.566;2024-03-07T23:06:05;12.63;;;6.35;;
58152;SDS011;43967;51.634;5.566;2024-03-07T23:11:26;12.57;;;6.13;;
58152;SDS011;43967;51.634;5.566;2024-03-07T23:16:48;13.77;;;6.28;;
58152;SDS011;43967;51.634;5.566;2024-03-07T23:22:10;12.32;;;6.00;;
58152;SDS011;43967;51.634;5.566;2024-03-07T23:27:31;14.00;;;6.43;;
58152;SDS011;43967;51.634;5.566;2024-03-07T23:32:52;14.30;;;7.13;;
58152;SDS011;43967;51.634;5.566;2024-03-07T23:38:14;12.63;;;6.55;;
58152;SDS011;43967;51.634;5.566;2024-03-07T23:43:35;14.18;;;6.70;;
58152;SDS011;43967;51.634;5.566;2024-03-07T23:48:58;13.53;;;6.57;;
58152;SDS011;43967;51.634;5.566;2024-03-07T23:54:19;12.63;;;6.63;;
58152;SDS011;43967;51.634;5.566;2024-03-07T23:59:41;13.05;;;6.25;;
